Time;durP1;ratioP1;P1;durP2;ratioP2;P2;SDS_P1;SDS_P2;PMS_P1;PMS_P2;Temp;Humidity;BMP_temperature;BMP_pressure;BME280_temperature;BME280_humidity;BME280_pressure;Samples;Min_cycle;Max_cycle;Signal;HPM_P1;HPM_P2
2023/06/03 00:01:14;;;;;;;0.73;0.57;;;10.80;99.90;;;;;;5041512;28;20222;-57
2023/06/03 00:03:44;;;;;;;0.60;0.40;;;10.80;99.90;;;;;;5042555;28;20193;-53
2023/06/03 00:06:12;;;;;;;2.27;0.70;;;10.80;99.90;;;;;;5043879;28;20759;-52
2023/06/03 00:08:39;;;;;;;1.23;0.37;;;10.70;99.90;;;;;;5041574;28;20279;-57
2023/06/03 00:11:07;;;;;;;1.07;0.40;;;10.70;99.90;;;;;;5019720;28;20203;-57
2023/06/03 00:13:56;;;;;;;1.10;0.70;;;10.70;99.90;;;;;;5027259;28;20684;-55
2023/06/03 00:16:23;;;;;;;1.63;0.63;;;10.60;99.90;;;;;;5039512;28;20214;-56
2023/06/03 00:18:50;;;;;;;0.83;0.60;;;10.60;99.90;;;;;;5043813;28;20724;-56
2023/06/03 00:21:17;;;;;;;1.23;0.40;;;10.50;99.90;;;;;;5042595;28;20219;-54
2023/06/03 00:23:48;;;;;;;0.87;0.50;;;10.50;99.90;;;;;;5041466;28;20448;-52
2023/06/03 00:26:16;;;;;;;0.70;0.50;;;10.50;99.90;;;;;;5027042;28;20215;-54
2023/06/03 00:28:47;;;;;;;0.87;0.60;;;10.50;99.90;;;;;;5028544;28;20670;-54
2023/06/03 00:31:14;;;;;;;1.00;0.60;;;10.50;99.90;;;;;;5040453;28;20580;-55
2023/06/03 00:33:41;;;;;;;0.60;0.60;;;10.40;99.90;;;;;;5041986;28;20183;-55
2023/06/03 00:36:09;;;;;;;0.80;0.70;;;10.40;99.90;;;;;;5043999;28;20227;-56
2023/06/03 00:38:35;;;;;;;0.83;0.77;;;10.30;99.90;;;;;;5036297;28;20176;-55
2023/06/03 00:41:02;;;;;;;1.17;0.77;;;10.20;99.90;;;;;;5036234;28;20701;-55
2023/06/03 00:43:30;;;;;;;1.87;0.70;;;10.30;99.90;;;;;;5010626;28;20199;-54
2023/06/03 00:45:58;;;;;;;1.67;0.50;;;10.20;99.90;;;;;;5038344;28;20219;-54
2023/06/03 00:48:28;;;;;;;2.00;0.70;;;10.10;99.90;;;;;;4977139;28;1797872;-54
2023/06/03 00:50:55;;;;;;;1.50;0.70;;;10.10;99.90;;;;;;5043826;28;20556;-54
2023/06/03 00:53:22;;;;;;;0.90;0.63;;;10.00;99.90;;;;;;5034704;28;20206;-56
2023/06/03 00:55:49;;;;;;;0.63;0.63;;;10.00;99.90;;;;;;5037678;28;20697;-56
2023/06/03 00:58:16;;;;;;;2.47;0.60;;;10.00;99.90;;;;;;5019386;28;20210;-55
2023/06/03 01:00:44;;;;;;;2.00;0.67;;;9.80;99.90;;;;;;5038271;28;20215;-57
2023/06/03 01:03:13;;;;;;;0.57;0.50;;;9.80;99.90;;;;;;5044313;28;20199;-53
2023/06/03 01:05:41;;;;;;;2.83;0.70;;;9.90;99.90;;;;;;5038711;28;21083;-53
2023/06/03 01:08:20;;;;;;;1.97;0.53;;;9.90;99.90;;;;;;5034786;28;20187;-56
2023/06/03 01:10:55;;;;;;;0.67;0.40;;;9.90;99.90;;;;;;5042606;28;20202;-56
2023/06/03 01:13:28;;;;;;;2.23;0.50;;;9.90;99.90;;;;;;5025310;28;20715;-52
2023/06/03 01:16:22;;;;;;;1.30;0.60;;;9.80;99.90;;;;;;5028611;28;20404;-54
2023/06/03 01:18:50;;;;;;;0.60;0.50;;;9.80;99.90;;;;;;5041463;28;20278;-54
2023/06/03 01:21:17;;;;;;;0.90;0.40;;;9.80;99.90;;;;;;5034942;28;20226;-56
2023/06/03 01:23:48;;;;;;;1.07;0.50;;;9.70;99.90;;;;;;5038710;28;20267;-57
2023/06/03 01:26:38;;;;;;;0.50;0.50;;;9.70;99.90;;;;;;5039529;28;20215;-54
2023/06/03 01:29:24;;;;;;;1.53;0.80;;;9.80;99.90;;;;;;5020726;28;20263;-55
2023/06/03 01:31:53;;;;;;;0.60;0.60;;;9.60;99.90;;;;;;5057604;28;20222;-55
2023/06/03 01:34:20;;;;;;;0.93;0.70;;;9.60;99.90;;;;;;5031862;28;20219;-54
2023/06/03 01:36:47;;;;;;;0.60;0.50;;;9.60;99.90;;;;;;5035447;28;20301;-56
2023/06/03 01:39:16;;;;;;;1.50;0.63;;;9.60;99.90;;;;;;5041379;28;20188;-55
2023/06/03 01:41:45;;;;;;;0.87;0.60;;;9.50;99.90;;;;;;5041457;28;20203;-57
2023/06/03 01:44:13;;;;;;;1.37;0.70;;;9.40;99.90;;;;;;5035314;28;20278;-56
2023/06/03 01:46:40;;;;;;;1.70;1.27;;;9.50;99.90;;;;;;5012577;28;20219;-54
2023/06/03 01:49:08;;;;;;;1.23;0.87;;;9.50;99.90;;;;;;5027370;28;20199;-53
2023/06/03 01:51:35;;;;;;;2.67;0.60;;;9.40;99.90;;;;;;5036031;28;20941;-56
2023/06/03 01:54:04;;;;;;;0.67;0.60;;;9.20;99.90;;;;;;5043568;28;20195;-57
2023/06/03 01:56:32;;;;;;;1.40;0.70;;;9.20;99.90;;;;;;5038797;28;20199;-55
2023/06/03 01:59:01;;;;;;;2.63;0.70;;;9.20;99.90;;;;;;5036889;28;20250;-57
2023/06/03 02:01:29;;;;;;;1.33;0.60;;;9.20;99.90;;;;;;5012797;28;20387;-55
2023/06/03 02:03:55;;;;;;;0.67;0.63;;;9.20;99.90;;;;;;5033175;28;20191;-56
2023/06/03 02:06:23;;;;;;;1.03;0.77;;;9.20;99.90;;;;;;5040184;28;20211;-56
2023/06/03 02:08:50;;;;;;;0.83;0.80;;;9.20;99.90;;;;;;5041758;28;20196;-55
2023/06/03 02:11:17;;;;;;;0.80;0.60;;;9.20;99.90;;;;;;5041813;28;20291;-55
2023/06/03 02:13:45;;;;;;;1.07;0.70;;;9.10;99.90;;;;;;5040572;28;20198;-57
2023/06/03 02:16:13;;;;;;;1.03;0.50;;;9.10;99.90;;;;;;5015898;28;20217;-55
2023/06/03 02:18:42;;;;;;;0.63;0.60;;;9.10;99.90;;;;;;5031145;28;20199;-55
2023/06/03 02:21:09;;;;;;;1.37;0.70;;;9.10;99.90;;;;;;5043087;28;20212;-57
2023/06/03 02:23:36;;;;;;;1.57;0.80;;;9.10;99.90;;;;;;5040270;28;20203;-56
2023/06/03 02:26:05;;;;;;;1.10;0.67;;;9.00;99.90;;;;;;5042059;28;20207;-57
2023/06/03 02:28:32;;;;;;;1.80;0.60;;;8.90;99.90;;;;;;5029538;28;20281;-53
2023/06/03 02:31:22;;;;;;;1.17;0.87;;;8.90;99.90;;;;;;5013281;28;20260;-57
2023/06/03 02:33:49;;;;;;;0.83;0.60;;;8.90;99.90;;;;;;5037772;28;20547;-56
2023/06/03 02:36:18;;;;;;;1.13;0.67;;;8.90;99.90;;;;;;5039064;28;20215;-56
2023/06/03 02:38:47;;;;;;;2.00;0.80;;;8.90;99.90;;;;;;5040293;28;20202;-57
2023/06/03 02:41:14;;;;;;;0.90;0.70;;;8.80;99.90;;;;;;5042269;28;20703;-56
2023/06/03 02:43:41;;;;;;;0.80;0.80;;;8.80;99.90;;;;;;5034669;28;20183;-55
2023/06/03 02:46:08;;;;;;;0.47;0.40;;;8.80;99.90;;;;;;5036092;28;20902;-55
2023/06/03 02:48:38;;;;;;;1.13;0.80;;;8.60;99.90;;;;;;5018484;28;20199;-57
2023/06/03 02:51:05;;;;;;;0.80;0.60;;;8.60;99.90;;;;;;5034910;28;20202;-56
2023/06/03 02:53:32;;;;;;;0.90;0.80;;;8.60;99.90;;;;;;5037954;28;20188;-57
2023/06/03 02:55:59;;;;;;;1.97;0.70;;;8.60;99.90;;;;;;5039260;28;20751;-55
2023/06/03 02:58:26;;;;;;;1.97;0.80;;;8.50;99.90;;;;;;5030135;28;20188;-56
2023/06/03 03:00:53;;;;;;;1.17;0.63;;;8.50;99.90;;;;;;5039817;28;20707;-55
2023/06/03 03:03:20;;;;;;;0.70;0.70;;;8.50;99.90;;;;;;5010832;28;20219;-56
2023/06/03 03:05:49;;;;;;;0.90;0.70;;;8.50;99.90;;;;;;5036813;28;20316;-55
2023/06/03 03:08:16;;;;;;;3.37;0.90;;;8.50;99.90;;;;;;5032170;28;20192;-55
2023/06/03 03:10:43;;;;;;;1.27;0.60;;;8.40;99.90;;;;;;5037281;28;20271;-56
2023/06/03 03:13:11;;;;;;;1.70;1.10;;;8.40;99.90;;;;;;5033168;28;20191;-56
2023/06/03 03:16:00;;;;;;;1.37;0.70;;;8.30;99.90;;;;;;5042797;28;20775;-54
2023/06/03 03:18:31;;;;;;;1.00;0.73;;;8.30;99.90;;;;;;5015462;28;20207;-54
2023/06/03 03:21:01;;;;;;;2.03;1.00;;;8.30;99.90;;;;;;5038774;28;20306;-54
2023/06/03 03:23:29;;;;;;;2.30;0.80;;;8.30;99.90;;;;;;5038585;28;20187;-56
2023/06/03 03:26:01;;;;;;;0.80;0.80;;;8.30;99.90;;;;;;5033398;28;20732;-57
2023/06/03 03:28:31;;;;;;;2.73;1.20;;;8.20;99.90;;;;;;5035230;28;20207;-56
2023/06/03 03:31:04;;;;;;;1.10;1.00;;;8.20;99.90;;;;;;5041503;28;20674;-57
2023/06/03 03:33:33;;;;;;;2.80;1.00;;;8.10;99.90;;;;;;5017107;28;20199;-57
2023/06/03 03:36:10;;;;;;;2.27;0.80;;;8.20;99.90;;;;;;5038975;28;20223;-57
2023/06/03 03:38:38;;;;;;;2.27;0.87;;;8.10;99.90;;;;;;5034112;28;20260;-57
2023/06/03 03:41:06;;;;;;;2.80;0.77;;;8.10;99.90;;;;;;5034895;28;20879;-53
2023/06/03 03:43:35;;;;;;;1.10;0.90;;;8.10;99.90;;;;;;5034517;28;20270;-55
2023/06/03 03:46:09;;;;;;;1.70;1.10;;;8.00;99.90;;;;;;5044890;28;20215;-57
2023/06/03 03:48:37;;;;;;;3.20;1.00;;;8.00;99.90;;;;;;5015234;28;20310;-57
2023/06/03 03:51:06;;;;;;;2.00;1.23;;;8.00;99.90;;;;;;5038075;28;20245;-56
2023/06/03 03:53:37;;;;;;;1.47;1.00;;;8.10;99.90;;;;;;5032292;28;20291;-55
2023/06/03 03:56:17;;;;;;;2.07;1.30;;;8.00;99.90;;;;;;5039351;28;20283;-56
2023/06/03 03:58:48;;;;;;;1.60;1.20;;;8.00;99.90;;;;;;5043776;28;20218;-57
2023/06/03 04:01:22;;;;;;;2.43;1.20;;;7.90;99.90;;;;;;5040663;28;20215;-55
2023/06/03 04:03:54;;;;;;;1.53;0.93;;;7.90;99.90;;;;;;5044815;28;20187;-56
2023/06/03 04:06:36;;;;;;;2.60;1.30;;;8.00;99.90;;;;;;5013748;28;20281;-56
2023/06/03 04:09:04;;;;;;;2.17;1.30;;;8.00;99.90;;;;;;5031980;28;20199;-56
2023/06/03 04:11:37;;;;;;;2.57;0.73;;;8.00;99.90;;;;;;5040490;28;20210;-54
2023/06/03 04:14:10;;;;;;;0.87;0.87;;;8.00;99.90;;;;;;5041633;28;20661;-56
2023/06/03 04:17:02;;;;;;;2.93;1.03;;;8.00;99.90;;;;;;5041379;28;20209;-55
2023/06/03 04:19:37;;;;;;;2.00;1.10;;;8.00;99.90;;;;;;5031557;28;20203;-56
2023/06/03 04:22:18;;;;;;;2.20;0.97;;;8.00;99.90;;;;;;5011383;28;20880;-51
2023/06/03 04:24:46;;;;;;;2.77;0.93;;;8.10;99.90;;;;;;5039782;28;20186;-56
2023/06/03 04:27:14;;;;;;;1.20;0.77;;;8.10;99.90;;;;;;5042881;28;20211;-55
2023/06/03 04:29:41;;;;;;;7.97;1.63;;;8.20;99.90;;;;;;5041796;28;20981;-57
2023/06/03 04:32:09;;;;;;;2.77;1.37;;;8.30;99.90;;;;;;5045391;28;20207;-56
2023/06/03 04:34:48;;;;;;;1.87;1.00;;;8.30;99.90;;;;;;5035639;28;20207;-54
2023/06/03 04:37:17;;;;;;;1.07;0.93;;;8.40;99.90;;;;;;5015231;28;20226;-57
2023/06/03 04:39:45;;;;;;;1.60;1.00;;;8.40;99.90;;;;;;5035468;28;20199;-57
2023/06/03 04:42:13;;;;;;;2.50;1.07;;;8.40;99.90;;;;;;5034437;28;20273;-57
2023/06/03 04:44:41;;;;;;;1.93;1.10;;;8.50;99.90;;;;;;5041102;28;20206;-55
2023/06/03 04:47:10;;;;;;;2.83;1.60;;;8.50;99.90;;;;;;5041054;28;20239;-55
2023/06/03 04:49:39;;;;;;;2.33;0.90;;;8.60;99.90;;;;;;5024328;28;21060;-56
2023/06/03 04:52:09;;;;;;;1.43;1.10;;;8.70;99.90;;;;;;5042445;28;20203;-56
2023/06/03 04:54:40;;;;;;;3.03;1.03;;;8.70;99.90;;;;;;5018148;28;20219;-57
2023/06/03 04:57:07;;;;;;;2.10;1.20;;;8.80;99.90;;;;;;5036607;28;20246;-57
2023/06/03 04:59:35;;;;;;;2.47;0.80;;;8.90;99.90;;;;;;5040428;28;20887;-54
2023/06/03 05:02:03;;;;;;;1.43;0.93;;;8.90;99.90;;;;;;5038084;28;20215;-56
2023/06/03 05:04:31;;;;;;;1.70;1.00;;;9.00;99.90;;;;;;5033042;28;20761;-56
2023/06/03 05:07:02;;;;;;;1.90;0.90;;;9.00;99.90;;;;;;5043870;28;20215;-59
2023/06/03 05:09:29;;;;;;;1.10;1.00;;;9.10;99.90;;;;;;5018461;28;20207;-57
2023/06/03 05:11:57;;;;;;;0.90;0.70;;;9.20;99.90;;;;;;5029685;28;20188;-57
2023/06/03 05:14:25;;;;;;;1.13;0.80;;;9.30;99.90;;;;;;5032836;28;20211;-56
2023/06/03 05:16:52;;;;;;;1.30;0.70;;;9.40;99.90;;;;;;5036474;28;20226;-57
2023/06/03 05:19:41;;;;;;;1.90;0.70;;;9.40;99.90;;;;;;5036599;28;20202;-56
2023/06/03 05:22:08;;;;;;;0.90;0.80;;;9.50;99.90;;;;;;5044393;28;20203;-55
2023/06/03 05:24:36;;;;;;;2.50;1.10;;;9.60;99.90;;;;;;5019305;28;20377;-56
2023/06/03 05:27:05;;;;;;;2.13;1.00;;;9.70;99.90;;;;;;5039687;28;20232;-55
2023/06/03 05:29:35;;;;;;;8.00;0.90;;;9.80;99.90;;;;;;5020050;28;20989;-56
2023/06/03 05:32:04;;;;;;;0.87;0.80;;;9.90;99.90;;;;;;5033655;28;20237;-57
2023/06/03 05:34:31;;;;;;;1.27;0.90;;;10.00;99.90;;;;;;5042466;28;20547;-56
2023/06/03 05:36:58;;;;;;;2.83;1.17;;;10.10;99.90;;;;;;5036305;28;20306;-56
2023/06/03 05:39:24;;;;;;;0.70;0.67;;;10.20;99.90;;;;;;5040589;28;20217;-53
2023/06/03 05:41:52;;;;;;;1.10;0.97;;;10.30;99.90;;;;;;5022938;28;20230;-55
2023/06/03 05:44:20;;;;;;;2.30;1.13;;;10.40;99.90;;;;;;5011969;28;20206;-54
2023/06/03 05:46:47;;;;;;;0.70;0.67;;;10.50;99.90;;;;;;5031866;28;20208;-56
2023/06/03 05:49:14;;;;;;;1.17;0.67;;;10.60;99.90;;;;;;5039160;28;20191;-55
2023/06/03 05:51:41;;;;;;;0.90;0.63;;;10.70;99.90;;;;;;5036912;28;20313;-57
2023/06/03 05:54:08;;;;;;;1.20;0.60;;;10.80;99.90;;;;;;5040881;28;20195;-55
2023/06/03 05:56:35;;;;;;;1.50;0.80;;;10.90;99.90;;;;;;5016668;28;20250;-53
2023/06/03 05:59:02;;;;;;;1.60;0.80;;;11.00;99.90;;;;;;5024328;28;20207;-55
2023/06/03 06:01:35;;;;;;;1.13;0.80;;;11.00;99.90;;;;;;5040332;28;20294;-57
2023/06/03 06:04:02;;;;;;;0.90;0.63;;;11.10;99.90;;;;;;5037000;28;20272;-55
2023/06/03 06:06:30;;;;;;;1.93;0.70;;;11.20;99.90;;;;;;5042573;28;20298;-55
2023/06/03 06:08:57;;;;;;;4.03;0.90;;;11.30;99.90;;;;;;5028000;28;20229;-55
2023/06/03 06:11:26;;;;;;;1.60;0.63;;;11.30;99.90;;;;;;5012633;28;20361;-54
2023/06/03 06:13:53;;;;;;;1.43;0.70;;;11.50;99.90;;;;;;5020178;28;20203;-57
2023/06/03 06:16:20;;;;;;;0.60;0.60;;;11.60;99.90;;;;;;5043031;28;20878;-56
2023/06/03 06:18:50;;;;;;;1.80;0.77;;;11.70;99.90;;;;;;5042579;28;20298;-54
2023/06/03 06:21:38;;;;;;;3.07;0.60;;;11.80;99.90;;;;;;5042272;28;20229;-57
2023/06/03 06:24:07;;;;;;;1.80;0.70;;;11.90;99.90;;;;;;5030870;28;20195;-54
2023/06/03 06:26:35;;;;;;;2.20;0.70;;;12.00;99.90;;;;;;5014284;28;20241;-56
2023/06/03 06:29:20;;;;;;;1.00;0.53;;;12.10;99.90;;;;;;5027159;28;21853;-55
2023/06/03 06:31:51;;;;;;;1.23;0.80;;;12.20;99.90;;;;;;5040524;28;20665;-55
2023/06/03 06:34:19;;;;;;;1.30;0.70;;;12.40;99.90;;;;;;5043332;28;20985;-51
2023/06/03 06:36:52;;;;;;;1.80;0.50;;;12.60;99.90;;;;;;5041497;28;20212;-56
2023/06/03 06:39:46;;;;;;;1.80;0.70;;;12.60;99.90;;;;;;5022924;28;20238;-54
2023/06/03 06:42:31;;;;;;;0.70;0.70;;;12.80;99.90;;;;;;5018874;28;20227;-53
2023/06/03 06:45:11;;;;;;;1.23;0.73;;;12.90;99.90;;;;;;5016111;28;20203;-54
2023/06/03 06:47:40;;;;;;;1.03;0.60;;;13.00;99.90;;;;;;5038850;28;20717;-54
2023/06/03 06:50:27;;;;;;;0.57;0.53;;;13.20;99.90;;;;;;5035870;28;20300;-56
2023/06/03 06:52:55;;;;;;;1.60;0.70;;;13.30;99.90;;;;;;5034061;28;20508;-54
2023/06/03 06:55:41;;;;;;;1.37;0.60;;;13.40;99.90;;;;;;5020875;28;20203;-55
2023/06/03 06:58:10;;;;;;;2.17;0.53;;;13.50;99.90;;;;;;5018838;28;20215;-56
2023/06/03 07:00:38;;;;;;;1.33;0.67;;;13.50;99.90;;;;;;5024856;28;20207;-56
2023/06/03 07:03:08;;;;;;;1.43;0.70;;;13.60;99.90;;;;;;5042907;28;20211;-56
2023/06/03 07:05:37;;;;;;;1.27;1.10;;;13.70;99.90;;;;;;5038083;28;20191;-56
2023/06/03 07:08:04;;;;;;;1.40;0.70;;;13.80;99.50;;;;;;5032788;28;20209;-53
2023/06/03 07:10:32;;;;;;;0.67;0.50;;;13.80;99.20;;;;;;5030822;28;20238;-56
2023/06/03 07:13:00;;;;;;;0.70;0.70;;;13.90;98.90;;;;;;5046268;28;20176;-57
2023/06/03 07:15:27;;;;;;;1.33;0.83;;;13.90;98.70;;;;;;5020341;28;20713;-54
2023/06/03 07:17:56;;;;;;;0.77;0.50;;;13.90;98.50;;;;;;5025413;28;20204;-57
2023/06/03 07:20:29;;;;;;;1.43;0.53;;;14.00;97.90;;;;;;5026606;28;20397;-56
2023/06/03 07:23:00;;;;;;;3.30;0.60;;;14.00;97.40;;;;;;5041698;28;20599;-55
2023/06/03 07:25:35;;;;;;;0.73;0.70;;;14.20;97.00;;;;;;5045609;28;21858;-56
2023/06/03 07:28:05;;;;;;;0.70;0.50;;;14.30;96.10;;;;;;5049452;28;20226;-55
2023/06/03 07:30:35;;;;;;;0.70;0.70;;;14.40;95.80;;;;;;5024234;28;21040;-56
2023/06/03 07:33:27;;;;;;;0.80;0.60;;;14.40;96.00;;;;;;5033910;28;20304;-54
2023/06/03 07:35:56;;;;;;;0.87;0.40;;;14.40;94.80;;;;;;5041323;28;20219;-57
2023/06/03 07:38:56;;;;;;;0.53;0.50;;;14.50;94.30;;;;;;5036787;28;20827;-55
2023/06/03 07:41:41;;;;;;;1.40;0.50;;;14.50;93.50;;;;;;5028996;28;20199;-58
2023/06/03 07:44:19;;;;;;;0.60;0.60;;;14.60;92.80;;;;;;5041543;28;20707;-55
2023/06/03 07:46:52;;;;;;;0.73;0.50;;;14.70;93.00;;;;;;5022852;28;20235;-55
2023/06/03 07:49:20;;;;;;;1.33;0.40;;;14.70;92.50;;;;;;5029366;28;20214;-57
2023/06/03 07:51:49;;;;;;;0.77;0.50;;;14.80;91.50;;;;;;5045162;28;20194;-56
2023/06/03 07:54:18;;;;;;;1.30;0.60;;;14.90;91.50;;;;;;5041259;28;20190;-55
2023/06/03 07:56:47;;;;;;;1.57;0.90;;;15.00;91.80;;;;;;5046194;28;20697;-55
2023/06/03 07:59:15;;;;;;;1.00;0.40;;;15.10;91.70;;;;;;5034903;28;20273;-54
2023/06/03 08:01:43;;;;;;;1.67;0.63;;;;;;;;;;5022855;28;20296;-54
2023/06/03 08:04:27;;;;;;;2.40;0.50;;;15.30;92.00;;;;;;5029811;28;20203;-57
2023/06/03 08:06:53;;;;;;;0.63;0.60;;;15.30;90.60;;;;;;5046470;28;20296;-53
2023/06/03 08:09:26;;;;;;;1.97;0.83;;;15.20;90.50;;;;;;5041076;28;20183;-57
2023/06/03 08:11:53;;;;;;;2.30;0.50;;;15.20;90.30;;;;;;5045795;28;20205;-55
2023/06/03 08:14:21;;;;;;;2.03;1.33;;;15.30;90.40;;;;;;5033116;28;20203;-55
2023/06/03 08:16:48;;;;;;;0.80;0.50;;;15.40;89.80;;;;;;5013369;28;20226;-54
2023/06/03 08:19:17;;;;;;;0.50;0.47;;;15.50;90.50;;;;;;5024967;28;20195;-55
2023/06/03 08:21:45;;;;;;;0.93;0.50;;;15.60;90.20;;;;;;5033373;28;20251;-56
2023/06/03 08:24:13;;;;;;;3.70;0.60;;;15.80;89.30;;;;;;5043396;28;20219;-56
2023/06/03 08:26:41;;;;;;;2.87;0.73;;;15.90;88.30;;;;;;5045407;28;20306;-52
2023/06/03 08:29:29;;;;;;;0.80;0.57;;;16.00;88.50;;;;;;5030895;28;20210;-57
2023/06/03 08:31:56;;;;;;;0.40;0.40;;;16.10;87.10;;;;;;5038030;28;20198;-55
2023/06/03 08:34:23;;;;;;;2.03;0.50;;;16.10;87.30;;;;;;5015306;28;20318;-56
2023/06/03 08:36:51;;;;;;;0.73;0.63;;;16.10;85.50;;;;;;5044824;28;20219;-54
2023/06/03 08:39:17;;;;;;;1.17;0.60;;;16.10;85.90;;;;;;5025925;28;20276;-54
2023/06/03 08:41:48;;;;;;;0.80;0.50;;;16.30;86.70;;;;;;5045151;28;20199;-51
2023/06/03 08:44:22;;;;;;;0.77;0.53;;;16.30;86.20;;;;;;5030686;28;20235;-52
2023/06/03 08:47:00;;;;;;;2.57;0.57;;;16.40;86.20;;;;;;5031991;28;20227;-57
2023/06/03 08:49:54;;;;;;;2.60;0.63;;;16.60;83.70;;;;;;5027204;28;20699;-55
2023/06/03 08:52:26;;;;;;;0.90;0.63;;;16.70;82.70;;;;;;5038621;28;20223;-54
2023/06/03 08:54:56;;;;;;;2.13;0.50;;;16.70;83.10;;;;;;5037018;28;20203;-56
2023/06/03 08:57:25;;;;;;;2.43;0.40;;;16.60;81.00;;;;;;5039093;28;20211;-56
2023/06/03 08:59:54;;;;;;;0.77;0.70;;;16.60;81.70;;;;;;5033330;28;20210;-57
2023/06/03 09:02:22;;;;;;;1.97;0.70;;;16.80;81.80;;;;;;5042034;28;20191;-52
2023/06/03 09:05:11;;;;;;;0.77;0.50;;;16.90;80.70;;;;;;5020990;28;20211;-56
2023/06/03 09:07:39;;;;;;;0.70;0.40;;;16.70;81.10;;;;;;5043388;28;20210;-55
2023/06/03 09:10:09;;;;;;;1.17;0.50;;;16.80;81.40;;;;;;5049302;28;20210;-54
2023/06/03 09:12:38;;;;;;;0.60;0.60;;;17.00;80.70;;;;;;5038146;28;20195;-55
2023/06/03 09:15:08;;;;;;;1.43;0.50;;;17.20;81.10;;;;;;5039972;28;20183;-55
2023/06/03 09:17:36;;;;;;;0.80;0.50;;;17.20;78.40;;;;;;5043500;28;20626;-56
2023/06/03 09:20:05;;;;;;;1.37;0.67;;;17.30;75.30;;;;;;5014552;28;20200;-56
2023/06/03 09:22:32;;;;;;;0.90;0.80;;;17.20;74.10;;;;;;5038169;28;20219;-55
2023/06/03 09:24:59;;;;;;;1.37;0.60;;;17.20;73.60;;;;;;5029900;28;20933;-55
2023/06/03 09:27:50;;;;;;;1.17;0.40;;;17.30;74.80;;;;;;5034809;28;20273;-56
2023/06/03 09:30:17;;;;;;;0.57;0.47;;;17.40;74.70;;;;;;5042130;28;20190;-57
2023/06/03 09:32:44;;;;;;;4.00;0.77;;;17.50;74.90;;;;;;5043809;28;20187;-56
2023/06/03 09:35:12;;;;;;;1.60;0.70;;;17.50;73.90;;;;;;5014598;28;20231;-56
2023/06/03 09:37:39;;;;;;;0.80;0.53;;;17.40;73.90;;;;;;5035005;28;20836;-56
2023/06/03 09:40:25;;;;;;;0.90;0.50;;;17.40;74.50;;;;;;5027115;28;20433;-56
2023/06/03 09:42:53;;;;;;;1.10;0.40;;;17.60;73.60;;;;;;5040202;28;20198;-57
2023/06/03 09:45:27;;;;;;;0.70;0.50;;;17.70;73.70;;;;;;5041303;28;20191;-55
2023/06/03 09:47:54;;;;;;;1.40;0.50;;;17.90;72.90;;;;;;5042254;28;20648;-53
2023/06/03 09:50:21;;;;;;;0.33;0.33;;;17.90;74.00;;;;;;5023270;28;20413;-55
2023/06/03 09:52:49;;;;;;;0.87;0.60;;;18.00;73.20;;;;;;5029322;28;20891;-53
2023/06/03 09:55:17;;;;;;;0.60;0.60;;;18.10;72.60;;;;;;5037357;28;20901;-53
2023/06/03 09:58:02;;;;;;;1.00;0.60;;;18.20;72.60;;;;;;5037189;28;20586;-54
2023/06/03 10:00:32;;;;;;;0.63;0.50;;;18.10;72.00;;;;;;5043260;28;20245;-49
2023/06/03 10:03:07;;;;;;;0.77;0.70;;;18.10;72.10;;;;;;5045807;28;20265;-54
2023/06/03 10:05:35;;;;;;;0.53;0.40;;;18.20;71.40;;;;;;5002052;28;20207;-53
2023/06/03 10:08:03;;;;;;;1.47;0.60;;;18.10;71.30;;;;;;5022882;28;20215;-50
2023/06/03 10:10:30;;;;;;;1.90;0.70;;;18.20;71.50;;;;;;5030403;28;20209;-53
2023/06/03 10:13:19;;;;;;;1.23;0.60;;;18.20;70.90;;;;;;5034358;28;20223;-53
2023/06/03 10:15:47;;;;;;;0.60;0.57;;;18.30;69.80;;;;;;5039927;28;20245;-54
2023/06/03 10:18:14;;;;;;;0.57;0.40;;;18.40;70.10;;;;;;5043848;28;20203;-54
2023/06/03 10:20:42;;;;;;;0.30;0.30;;;18.50;68.90;;;;;;5011288;28;20212;-53
2023/06/03 10:23:10;;;;;;;1.83;0.70;;;18.70;68.40;;;;;;5021042;28;20218;-51
2023/06/03 10:25:41;;;;;;;0.90;0.50;;;18.80;67.40;;;;;;5043587;28;20191;-55
2023/06/03 10:28:10;;;;;;;1.30;0.50;;;18.90;67.30;;;;;;5030876;28;20450;-54
2023/06/03 10:30:39;;;;;;;0.93;0.50;;;19.00;67.50;;;;;;5057172;28;20591;-54
2023/06/03 10:33:08;;;;;;;1.03;0.63;;;19.10;67.20;;;;;;5033756;28;20218;-54
2023/06/03 10:35:36;;;;;;;0.73;0.40;;;19.20;67.00;;;;;;5009220;28;20239;-55
2023/06/03 10:38:05;;;;;;;1.23;0.70;;;19.10;66.50;;;;;;5031274;28;20339;-49
2023/06/03 10:40:31;;;;;;;1.20;0.50;;;19.00;65.90;;;;;;5042720;28;20285;-51
2023/06/03 10:42:59;;;;;;;0.67;0.67;;;19.00;65.10;;;;;;5025536;28;20837;-53
2023/06/03 10:45:28;;;;;;;1.17;0.70;;;18.90;64.70;;;;;;5043056;28;20373;-53
2023/06/03 10:48:01;;;;;;;1.07;0.53;;;18.90;64.80;;;;;;5032825;28;20207;-53
2023/06/03 10:50:53;;;;;;;0.50;0.50;;;18.70;65.00;;;;;;5038550;28;20282;-54
2023/06/03 10:53:54;;;;;;;1.63;0.50;;;18.80;66.40;;;;;;5036371;28;20350;-53
2023/06/03 10:56:29;;;;;;;1.20;0.50;;;18.80;66.10;;;;;;5044101;28;20210;-52
2023/06/03 10:59:03;;;;;;;0.80;0.53;;;19.00;66.30;;;;;;5032441;28;20211;-52
2023/06/03 11:01:59;;;;;;;0.77;0.53;;;19.00;65.50;;;;;;5042443;28;20274;-51
2023/06/03 11:04:28;;;;;;;1.97;1.73;;;18.90;65.10;;;;;;5040400;28;20239;-52
2023/06/03 11:06:57;;;;;;;0.80;0.53;;;19.00;65.00;;;;;;5022935;28;20238;-52
2023/06/03 11:09:35;;;;;;;0.50;0.50;;;19.20;65.40;;;;;;5026151;28;20199;-51
2023/06/03 11:12:21;;;;;;;1.40;1.00;;;19.50;65.80;;;;;;5044321;28;20210;-54
2023/06/03 11:14:53;;;;;;;1.70;1.13;;;19.70;64.70;;;;;;5029474;28;20195;-51
2023/06/03 11:17:21;;;;;;;1.03;0.93;;;19.80;64.20;;;;;;5038440;28;20211;-54
2023/06/03 11:19:51;;;;;;;2.73;0.90;;;19.90;64.20;;;;;;5043063;28;20191;-49
2023/06/03 11:22:39;;;;;;;1.97;0.90;;;19.80;63.60;;;;;;5048515;28;20677;-50
2023/06/03 11:25:07;;;;;;;2.27;1.40;;;19.90;64.00;;;;;;5036867;28;20309;-51
2023/06/03 11:27:33;;;;;;;0.80;0.80;;;19.80;63.10;;;;;;5043694;28;20211;-52
2023/06/03 11:30:04;;;;;;;2.37;0.60;;;20.00;62.00;;;;;;5031275;28;20249;-51
2023/06/03 11:32:32;;;;;;;0.77;0.50;;;20.10;62.40;;;;;;5035317;28;20230;-55
2023/06/03 11:35:31;;;;;;;4.63;0.70;;;20.00;87.60;;;;;;5046237;28;20183;-53
2023/06/03 11:37:58;;;;;;;1.13;0.77;;;20.10;87.00;;;;;;4981455;28;20439;-49
2023/06/03 11:40:25;;;;;;;1.73;0.70;;;20.10;82.20;;;;;;5020740;28;20737;-52
2023/06/03 11:43:07;;;;;;;0.70;0.50;;;20.10;82.70;;;;;;5034069;28;20282;-52
2023/06/03 11:45:36;;;;;;;0.80;0.60;;;20.10;76.30;;;;;;5028917;28;20204;-49
2023/06/03 11:48:07;;;;;;;1.70;0.80;;;19.90;79.20;;;;;;5042925;28;20666;-50
2023/06/03 11:50:53;;;;;;;3.63;0.77;;;20.00;79.70;;;;;;5044258;28;20198;-54
2023/06/03 11:53:36;;;;;;;0.70;0.57;;;20.30;94.20;;;;;;5046985;28;20241;-52
2023/06/03 11:56:09;;;;;;;0.70;0.60;;;;;;;;;;5034761;28;20305;-55
2023/06/03 11:58:38;;;;;;;0.70;0.50;;;20.50;58.80;;;;;;5038762;28;20624;-51
2023/06/03 12:01:10;;;;;;;1.33;0.57;;;20.60;60.80;;;;;;5037266;28;20218;-51
2023/06/03 12:03:38;;;;;;;1.50;0.50;;;20.70;59.10;;;;;;5041735;28;20211;-52
2023/06/03 12:06:06;;;;;;;1.70;0.70;;;20.70;59.70;;;;;;5050246;28;20216;-54
2023/06/03 12:08:45;;;;;;;1.37;0.80;;;20.90;58.20;;;;;;5046553;28;20275;-53
2023/06/03 12:11:25;;;;;;;2.07;0.70;;;20.90;58.20;;;;;;5011676;28;20207;-52
2023/06/03 12:13:52;;;;;;;0.40;0.40;;;21.00;58.00;;;;;;5040370;28;20278;-52
2023/06/03 12:16:30;;;;;;;1.53;0.40;;;21.30;66.80;;;;;;5046779;28;20318;-54
2023/06/03 12:18:58;;;;;;;2.00;0.60;;;21.20;67.20;;;;;;5039000;28;20191;-54
2023/06/03 12:21:26;;;;;;;1.47;0.83;;;21.30;79.50;;;;;;5036204;28;20719;-52
2023/06/03 12:23:53;;;;;;;1.60;0.60;;;21.20;74.30;;;;;;5040643;28;21000;-53
2023/06/03 12:26:20;;;;;;;0.90;0.60;;;21.30;66.00;;;;;;5013415;28;20231;-51
2023/06/03 12:28:47;;;;;;;0.60;0.60;;;21.50;64.50;;;;;;5034144;28;20244;-55
2023/06/03 12:31:16;;;;;;;1.07;0.50;;;21.30;62.90;;;;;;5039213;28;20241;-54
2023/06/03 12:33:45;;;;;;;0.60;0.50;;;21.10;63.60;;;;;;5034322;28;20253;-50
2023/06/03 12:36:12;;;;;;;1.40;0.50;;;20.90;63.90;;;;;;5044993;28;20214;-50
2023/06/03 12:38:58;;;;;;;0.63;0.60;;;20.80;64.40;;;;;;5036098;28;20191;-51
2023/06/03 12:41:29;;;;;;;0.70;0.40;;;20.90;65.10;;;;;;5014424;28;20216;-49
2023/06/03 12:44:01;;;;;;;2.67;0.50;;;20.80;65.40;;;;;;5041631;28;20207;-54
2023/06/03 12:46:28;;;;;;;1.57;0.53;;;20.90;65.60;;;;;;5040019;28;20732;-52
2023/06/03 12:48:57;;;;;;;1.43;0.73;;;20.70;66.10;;;;;;5038663;28;20203;-49
2023/06/03 12:51:25;;;;;;;1.83;0.90;;;21.00;65.70;;;;;;5039828;28;20214;-53
2023/06/03 12:53:55;;;;;;;8.30;1.10;;;21.20;63.80;;;;;;5034166;28;20180;-49
2023/06/03 12:56:24;;;;;;;2.00;0.50;;;21.60;55.50;;;;;;5019599;28;20226;-54
2023/06/03 12:58:51;;;;;;;1.63;0.80;;;21.60;60.00;;;;;;5028744;28;20192;-54
2023/06/03 13:01:20;;;;;;;1.60;0.63;;;21.60;89.80;;;;;;5042229;28;20196;-50
2023/06/03 13:03:47;;;;;;;1.10;0.60;;;21.40;90.70;;;;;;5038114;28;20212;-52
2023/06/03 13:06:15;;;;;;;0.43;0.40;;;21.30;90.10;;;;;;5031881;28;20223;-52
2023/06/03 13:08:42;;;;;;;0.97;0.60;;;21.20;89.20;;;;;;5019465;28;20234;-51
2023/06/03 13:11:09;;;;;;;1.90;0.80;;;21.30;88.00;;;;;;5030892;28;20205;-50